Savannah, Ohio
Current Conditions -  °F | °C
As of 5:20 PM on Monday 24 Nov 2014 (Local Time) from KMFD Reporting Station
Overcast Overcast  
Wind Chill: 32°   Ceiling: 3300
Heat Index: 42°   Visibility: 10mi
Dew Point: 32°   Wind: 25mph
Humidity: 67%   Direction: 230°SW
Pressure: 29.63"   Gusts: 39mph
Location:  40.97°N, 82.37°W
Report Text: KMFD 242220Z 23022G34KT 10SM OVC033 06/00 A2963 RMK AO2 PK WND 22039/2155 T00560000
Loading
Personal Weather Stations






























Interactive Weather Map New forecast layout! Learn more

10-Day Weather Forecast

Advertisements
Track Severe Weather on mobile